sensor_id;sensor_type;location;lat;lon;timestamp;P1;durP1;ratioP1;P2;durP2;ratioP2
31206;SDS011;17834;52.992;8.856;2024-03-29T00:01:23;3.88;;;1.10;;
31206;SDS011;17834;52.992;8.856;2024-03-29T00:03:49;2.83;;;1.10;;
31206;SDS011;17834;52.992;8.856;2024-03-29T00:06:18;2.63;;;1.08;;
31206;SDS011;17834;52.992;8.856;2024-03-29T00:08:43;2.63;;;1.23;;
31206;SDS011;17834;52.992;8.856;2024-03-29T00:11:09;1.80;;;1.00;;
31206;SDS011;17834;52.992;8.856;2024-03-29T00:13:35;1.08;;;0.80;;
31206;SDS011;17834;52.992;8.856;2024-03-29T00:16:02;1.70;;;0.90;;
31206;SDS011;17834;52.992;8.856;2024-03-29T00:18:27;2.63;;;0.90;;
31206;SDS011;17834;52.992;8.856;2024-03-29T00:20:53;3.65;;;1.27;;
31206;SDS011;17834;52.992;8.856;2024-03-29T00:23:19;2.08;;;1.00;;
31206;SDS011;17834;52.992;8.856;2024-03-29T00:25:45;2.17;;;1.05;;
31206;SDS011;17834;52.992;8.856;2024-03-29T00:28:11;6.47;;;1.40;;
31206;SDS011;17834;52.992;8.856;2024-03-29T00:30:37;1.02;;;0.90;;
31206;SDS011;17834;52.992;8.856;2024-03-29T00:33:03;1.90;;;1.05;;
31206;SDS011;17834;52.992;8.856;2024-03-29T00:35:29;2.22;;;1.35;;
31206;SDS011;17834;52.992;8.856;2024-03-29T00:37:56;2.33;;;1.20;;
31206;SDS011;17834;52.992;8.856;2024-03-29T00:40:21;3.97;;;1.13;;
31206;SDS011;17834;52.992;8.856;2024-03-29T00:42:47;3.00;;;1.00;;
31206;SDS011;17834;52.992;8.856;2024-03-29T00:45:13;4.22;;;1.10;;
31206;SDS011;17834;52.992;8.856;2024-03-29T00:47:39;5.82;;;1.30;;
31206;SDS011;17834;52.992;8.856;2024-03-29T00:50:05;2.15;;;1.20;;
31206;SDS011;17834;52.992;8.856;2024-03-29T00:52:34;4.55;;;1.20;;
31206;SDS011;17834;52.992;8.856;2024-03-29T00:55:00;4.18;;;1.33;;
31206;SDS011;17834;52.992;8.856;2024-03-29T00:57:26;1.77;;;1.08;;
31206;SDS011;17834;52.992;8.856;2024-03-29T00:59:52;3.80;;;1.02;;
31206;SDS011;17834;52.992;8.856;2024-03-29T01:02:18;1.70;;;1.20;;
31206;SDS011;17834;52.992;8.856;2024-03-29T01:04:44;1.75;;;0.93;;
31206;SDS011;17834;52.992;8.856;2024-03-29T01:07:10;3.20;;;0.95;;
31206;SDS011;17834;52.992;8.856;2024-03-29T01:09:36;2.92;;;1.00;;
31206;SDS011;17834;52.992;8.856;2024-03-29T01:12:02;2.10;;;1.20;;
31206;SDS011;17834;52.992;8.856;2024-03-29T01:14:28;4.63;;;1.08;;
31206;SDS011;17834;52.992;8.856;2024-03-29T01:16:54;2.40;;;0.95;;
31206;SDS011;17834;52.992;8.856;2024-03-29T01:19:20;3.92;;;1.40;;
31206;SDS011;17834;52.992;8.856;2024-03-29T01:21:46;2.90;;;1.10;;
31206;SDS011;17834;52.992;8.856;2024-03-29T01:24:12;5.72;;;1.00;;
31206;SDS011;17834;52.992;8.856;2024-03-29T01:26:38;2.33;;;1.10;;
31206;SDS011;17834;52.992;8.856;2024-03-29T01:29:04;2.80;;;1.30;;
31206;SDS011;17834;52.992;8.856;2024-03-29T01:31:31;1.40;;;0.93;;
31206;SDS011;17834;52.992;8.856;2024-03-29T01:33:57;1.98;;;0.95;;
31206;SDS011;17834;52.992;8.856;2024-03-29T01:36:23;3.97;;;1.20;;
31206;SDS011;17834;52.992;8.856;2024-03-29T01:38:49;5.50;;;1.02;;
31206;SDS011;17834;52.992;8.856;2024-03-29T01:41:19;3.55;;;0.93;;
31206;SDS011;17834;52.992;8.856;2024-03-29T01:43:45;2.33;;;1.10;;
31206;SDS011;17834;52.992;8.856;2024-03-29T01:46:11;1.40;;;0.85;;
31206;SDS011;17834;52.992;8.856;2024-03-29T01:48:37;2.95;;;0.95;;
31206;SDS011;17834;52.992;8.856;2024-03-29T01:51:03;3.15;;;1.00;;
31206;SDS011;17834;52.992;8.856;2024-03-29T01:53:29;1.98;;;1.02;;
31206;SDS011;17834;52.992;8.856;2024-03-29T01:55:56;1.55;;;0.90;;
31206;SDS011;17834;52.992;8.856;2024-03-29T01:58:22;1.55;;;0.88;;
31206;SDS011;17834;52.992;8.856;2024-03-29T02:00:51;5.78;;;1.17;;
31206;SDS011;17834;52.992;8.856;2024-03-29T02:03:17;2.47;;;1.15;;
31206;SDS011;17834;52.992;8.856;2024-03-29T02:05:43;1.63;;;0.82;;
31206;SDS011;17834;52.992;8.856;2024-03-29T02:08:10;1.58;;;1.10;;
31206;SDS011;17834;52.992;8.856;2024-03-29T02:10:36;5.28;;;1.27;;
31206;SDS011;17834;52.992;8.856;2024-03-29T02:13:03;4.47;;;1.10;;
31206;SDS011;17834;52.992;8.856;2024-03-29T02:15:29;5.80;;;1.10;;
31206;SDS011;17834;52.992;8.856;2024-03-29T02:17:55;3.58;;;0.75;;
31206;SDS011;17834;52.992;8.856;2024-03-29T02:20:21;5.35;;;1.10;;
31206;SDS011;17834;52.992;8.856;2024-03-29T02:22:55;5.18;;;1.10;;
31206;SDS011;17834;52.992;8.856;2024-03-29T02:25:21;3.15;;;0.82;;
31206;SDS011;17834;52.992;8.856;2024-03-29T02:27:47;1.05;;;0.77;;
31206;SDS011;17834;52.992;8.856;2024-03-29T02:30:14;2.53;;;0.82;;
31206;SDS011;17834;52.992;8.856;2024-03-29T02:32:40;2.33;;;1.30;;
31206;SDS011;17834;52.992;8.856;2024-03-29T02:35:06;4.13;;;0.98;;
31206;SDS011;17834;52.992;8.856;2024-03-29T02:37:32;2.63;;;1.10;;
31206;SDS011;17834;52.992;8.856;2024-03-29T02:39:58;2.70;;;1.58;;
31206;SDS011;17834;52.992;8.856;2024-03-29T02:42:24;3.40;;;0.98;;
31206;SDS011;17834;52.992;8.856;2024-03-29T02:44:50;1.05;;;0.75;;
31206;SDS011;17834;52.992;8.856;2024-03-29T02:47:17;1.17;;;0.93;;
31206;SDS011;17834;52.992;8.856;2024-03-29T02:49:43;2.95;;;0.90;;
31206;SDS011;17834;52.992;8.856;2024-03-29T02:52:09;1.75;;;0.88;;
31206;SDS011;17834;52.992;8.856;2024-03-29T02:54:35;1.40;;;0.98;;
31206;SDS011;17834;52.992;8.856;2024-03-29T02:57:01;1.70;;;0.90;;
31206;SDS011;17834;52.992;8.856;2024-03-29T02:59:27;1.80;;;0.90;;
31206;SDS011;17834;52.992;8.856;2024-03-29T03:01:53;1.55;;;0.80;;
31206;SDS011;17834;52.992;8.856;2024-03-29T03:04:19;2.28;;;0.90;;
31206;SDS011;17834;52.992;8.856;2024-03-29T03:06:45;3.55;;;0.95;;
31206;SDS011;17834;52.992;8.856;2024-03-29T03:09:11;6.95;;;1.00;;
31206;SDS011;17834;52.992;8.856;2024-03-29T03:11:56;3.08;;;1.23;;
31206;SDS011;17834;52.992;8.856;2024-03-29T03:14:21;3.28;;;0.90;;
31206;SDS011;17834;52.992;8.856;2024-03-29T03:16:47;1.25;;;0.90;;
31206;SDS011;17834;52.992;8.856;2024-03-29T03:19:13;4.10;;;0.80;;
31206;SDS011;17834;52.992;8.856;2024-03-29T03:21:39;4.22;;;1.10;;
31206;SDS011;17834;52.992;8.856;2024-03-29T03:24:05;1.33;;;0.98;;
31206;SDS011;17834;52.992;8.856;2024-03-29T03:26:31;1.50;;;0.90;;
31206;SDS011;17834;52.992;8.856;2024-03-29T03:28:57;4.25;;;1.40;;
31206;SDS011;17834;52.992;8.856;2024-03-29T03:31:23;2.17;;;1.08;;
31206;SDS011;17834;52.992;8.856;2024-03-29T03:33:49;1.63;;;1.20;;
31206;SDS011;17834;52.992;8.856;2024-03-29T03:36:15;2.22;;;0.90;;
31206;SDS011;17834;52.992;8.856;2024-03-29T03:38:41;5.82;;;1.55;;
31206;SDS011;17834;52.992;8.856;2024-03-29T03:41:07;1.55;;;0.90;;
31206;SDS011;17834;52.992;8.856;2024-03-29T03:43:33;5.22;;;1.15;;
31206;SDS011;17834;52.992;8.856;2024-03-29T03:46:00;2.88;;;0.82;;
31206;SDS011;17834;52.992;8.856;2024-03-29T03:48:26;3.95;;;1.10;;
31206;SDS011;17834;52.992;8.856;2024-03-29T03:50:53;1.73;;;0.95;;
31206;SDS011;17834;52.992;8.856;2024-03-29T03:53:19;3.72;;;1.73;;
31206;SDS011;17834;52.992;8.856;2024-03-29T03:55:45;2.63;;;1.00;;
31206;SDS011;17834;52.992;8.856;2024-03-29T03:58:11;1.60;;;1.00;;
31206;SDS011;17834;52.992;8.856;2024-03-29T04:00:37;3.08;;;1.23;;
31206;SDS011;17834;52.992;8.856;2024-03-29T04:03:03;1.65;;;1.10;;
31206;SDS011;17834;52.992;8.856;2024-03-29T04:05:29;2.50;;;1.00;;
31206;SDS011;17834;52.992;8.856;2024-03-29T04:07:56;3.63;;;1.10;;
31206;SDS011;17834;52.992;8.856;2024-03-29T04:10:23;3.35;;;0.90;;
31206;SDS011;17834;52.992;8.856;2024-03-29T04:12:52;2.50;;;0.85;;
31206;SDS011;17834;52.992;8.856;2024-03-29T04:15:18;1.33;;;0.80;;
31206;SDS011;17834;52.992;8.856;2024-03-29T04:17:44;2.80;;;1.02;;
31206;SDS011;17834;52.992;8.856;2024-03-29T04:20:10;3.58;;;0.93;;
31206;SDS011;17834;52.992;8.856;2024-03-29T04:22:36;3.10;;;0.93;;
31206;SDS011;17834;52.992;8.856;2024-03-29T04:25:02;5.93;;;1.15;;
31206;SDS011;17834;52.992;8.856;2024-03-29T04:27:28;4.47;;;1.73;;
31206;SDS011;17834;52.992;8.856;2024-03-29T04:29:54;4.70;;;1.20;;
31206;SDS011;17834;52.992;8.856;2024-03-29T04:32:20;2.17;;;1.00;;
31206;SDS011;17834;52.992;8.856;2024-03-29T04:34:49;1.48;;;0.80;;
31206;SDS011;17834;52.992;8.856;2024-03-29T04:37:17;3.53;;;1.05;;
31206;SDS011;17834;52.992;8.856;2024-03-29T04:39:43;2.28;;;0.90;;
31206;SDS011;17834;52.992;8.856;2024-03-29T04:42:09;4.53;;;1.30;;
31206;SDS011;17834;52.992;8.856;2024-03-29T04:44:36;2.53;;;0.90;;
31206;SDS011;17834;52.992;8.856;2024-03-29T04:47:02;1.50;;;0.90;;
31206;SDS011;17834;52.992;8.856;2024-03-29T04:49:28;3.53;;;0.93;;
31206;SDS011;17834;52.992;8.856;2024-03-29T04:52:01;3.47;;;1.10;;
31206;SDS011;17834;52.992;8.856;2024-03-29T04:54:27;2.25;;;0.90;;
31206;SDS011;17834;52.992;8.856;2024-03-29T04:56:53;1.95;;;0.98;;
31206;SDS011;17834;52.992;8.856;2024-03-29T04:59:19;3.00;;;1.15;;
31206;SDS011;17834;52.992;8.856;2024-03-29T05:01:46;2.58;;;1.20;;
31206;SDS011;17834;52.992;8.856;2024-03-29T05:04:16;5.10;;;1.27;;
31206;SDS011;17834;52.992;8.856;2024-03-29T05:06:44;3.58;;;1.20;;
31206;SDS011;17834;52.992;8.856;2024-03-29T05:09:13;5.28;;;1.08;;
31206;SDS011;17834;52.992;8.856;2024-03-29T05:11:39;7.95;;;1.23;;
31206;SDS011;17834;52.992;8.856;2024-03-29T05:14:05;4.88;;;1.10;;
31206;SDS011;17834;52.992;8.856;2024-03-29T05:16:31;4.70;;;1.38;;
31206;SDS011;17834;52.992;8.856;2024-03-29T05:18:57;1.50;;;1.10;;
31206;SDS011;17834;52.992;8.856;2024-03-29T05:21:23;3.97;;;0.90;;
31206;SDS011;17834;52.992;8.856;2024-03-29T05:23:48;4.55;;;1.08;;
31206;SDS011;17834;52.992;8.856;2024-03-29T05:26:14;3.30;;;1.13;;
31206;SDS011;17834;52.992;8.856;2024-03-29T05:28:40;4.85;;;1.30;;
31206;SDS011;17834;52.992;8.856;2024-03-29T05:31:13;3.72;;;0.95;;
31206;SDS011;17834;52.992;8.856;2024-03-29T05:33:43;9.93;;;3.35;;
31206;SDS011;17834;52.992;8.856;2024-03-29T05:36:10;11.88;;;5.32;;
31206;SDS011;17834;52.992;8.856;2024-03-29T05:38:38;8.02;;;3.25;;
31206;SDS011;17834;52.992;8.856;2024-03-29T05:41:04;5.80;;;2.03;;
31206;SDS011;17834;52.992;8.856;2024-03-29T05:43:30;4.07;;;1.58;;
31206;SDS011;17834;52.992;8.856;2024-03-29T05:45:56;2.35;;;1.20;;
31206;SDS011;17834;52.992;8.856;2024-03-29T05:48:22;3.08;;;1.13;;
31206;SDS011;17834;52.992;8.856;2024-03-29T05:50:48;2.13;;;1.00;;
31206;SDS011;17834;52.992;8.856;2024-03-29T05:53:14;1.80;;;0.98;;
31206;SDS011;17834;52.992;8.856;2024-03-29T05:55:40;6.45;;;1.10;;
31206;SDS011;17834;52.992;8.856;2024-03-29T05:58:06;1.65;;;0.73;;
31206;SDS011;17834;52.992;8.856;2024-03-29T06:00:32;4.65;;;1.88;;
31206;SDS011;17834;52.992;8.856;2024-03-29T06:03:00;1.77;;;0.90;;
31206;SDS011;17834;52.992;8.856;2024-03-29T06:05:27;3.97;;;1.10;;
31206;SDS011;17834;52.992;8.856;2024-03-29T06:07:53;6.63;;;0.90;;
31206;SDS011;17834;52.992;8.856;2024-03-29T06:10:19;1.80;;;0.98;;
31206;SDS011;17834;52.992;8.856;2024-03-29T06:12:45;2.75;;;0.82;;
31206;SDS011;17834;52.992;8.856;2024-03-29T06:15:11;1.73;;;0.70;;
31206;SDS011;17834;52.992;8.856;2024-03-29T06:17:56;3.20;;;0.80;;
31206;SDS011;17834;52.992;8.856;2024-03-29T06:20:22;1.52;;;0.80;;
31206;SDS011;17834;52.992;8.856;2024-03-29T06:22:48;2.60;;;1.05;;
31206;SDS011;17834;52.992;8.856;2024-03-29T06:25:14;2.92;;;1.00;;
31206;SDS011;17834;52.992;8.856;2024-03-29T06:27:40;1.63;;;0.90;;
31206;SDS011;17834;52.992;8.856;2024-03-29T06:30:09;1.92;;;0.85;;
31206;SDS011;17834;52.992;8.856;2024-03-29T06:32:35;10.10;;;2.50;;
31206;SDS011;17834;52.992;8.856;2024-03-29T06:35:02;5.43;;;1.58;;
31206;SDS011;17834;52.992;8.856;2024-03-29T06:37:28;2.35;;;0.85;;
31206;SDS011;17834;52.992;8.856;2024-03-29T06:39:54;3.88;;;1.30;;
31206;SDS011;17834;52.992;8.856;2024-03-29T06:42:20;1.25;;;0.73;;
31206;SDS011;17834;52.992;8.856;2024-03-29T06:44:46;0.73;;;0.60;;
31206;SDS011;17834;52.992;8.856;2024-03-29T06:47:12;3.83;;;0.77;;
31206;SDS011;17834;52.992;8.856;2024-03-29T06:49:38;4.22;;;1.33;;
31206;SDS011;17834;52.992;8.856;2024-03-29T06:52:04;3.05;;;1.05;;
31206;SDS011;17834;52.992;8.856;2024-03-29T06:54:30;2.63;;;0.63;;
31206;SDS011;17834;52.992;8.856;2024-03-29T06:56:58;2.75;;;0.68;;
31206;SDS011;17834;52.992;8.856;2024-03-29T06:59:24;5.30;;;1.42;;
31206;SDS011;17834;52.992;8.856;2024-03-29T07:01:50;1.48;;;0.68;;
31206;SDS011;17834;52.992;8.856;2024-03-29T07:04:20;1.25;;;0.55;;
31206;SDS011;17834;52.992;8.856;2024-03-29T07:06:46;1.75;;;0.80;;
31206;SDS011;17834;52.992;8.856;2024-03-29T07:09:13;1.98;;;0.70;;
31206;SDS011;17834;52.992;8.856;2024-03-29T07:11:39;0.40;;;0.40;;
31206;SDS011;17834;52.992;8.856;2024-03-29T07:14:05;1.33;;;0.52;;
31206;SDS011;17834;52.992;8.856;2024-03-29T07:16:31;2.92;;;1.13;;
31206;SDS011;17834;52.992;8.856;2024-03-29T07:18:57;10.18;;;1.35;;
31206;SDS011;17834;52.992;8.856;2024-03-29T07:21:23;3.22;;;0.57;;
31206;SDS011;17834;52.992;8.856;2024-03-29T07:23:49;0.95;;;0.70;;
31206;SDS011;17834;52.992;8.856;2024-03-29T07:26:15;2.05;;;0.80;;
31206;SDS011;17834;52.992;8.856;2024-03-29T07:28:41;5.35;;;1.20;;
31206;SDS011;17834;52.992;8.856;2024-03-29T07:31:08;2.03;;;0.88;;
31206;SDS011;17834;52.992;8.856;2024-03-29T07:33:34;1.48;;;0.93;;
31206;SDS011;17834;52.992;8.856;2024-03-29T07:36:00;0.88;;;0.50;;
31206;SDS011;17834;52.992;8.856;2024-03-29T07:38:26;1.02;;;0.68;;
31206;SDS011;17834;52.992;8.856;2024-03-29T07:40:52;3.08;;;1.27;;
31206;SDS011;17834;52.992;8.856;2024-03-29T07:43:20;3.53;;;0.88;;
31206;SDS011;17834;52.992;8.856;2024-03-29T07:45:46;1.73;;;0.68;;
31206;SDS011;17834;52.992;8.856;2024-03-29T07:48:13;1.95;;;0.60;;
31206;SDS011;17834;52.992;8.856;2024-03-29T07:50:43;1.30;;;0.55;;
31206;SDS011;17834;52.992;8.856;2024-03-29T07:53:09;1.95;;;0.85;;
31206;SDS011;17834;52.992;8.856;2024-03-29T07:55:35;2.33;;;0.82;;
31206;SDS011;17834;52.992;8.856;2024-03-29T07:58:01;2.60;;;1.05;;
31206;SDS011;17834;52.992;8.856;2024-03-29T08:00:30;4.85;;;1.00;;
31206;SDS011;17834;52.992;8.856;2024-03-29T08:02:56;2.58;;;0.95;;
31206;SDS011;17834;52.992;8.856;2024-03-29T08:05:22;4.07;;;2.00;;
31206;SDS011;17834;52.992;8.856;2024-03-29T08:07:49;3.92;;;1.85;;
31206;SDS011;17834;52.992;8.856;2024-03-29T08:10:15;2.33;;;0.70;;
31206;SDS011;17834;52.992;8.856;2024-03-29T08:12:41;2.65;;;0.80;;
31206;SDS011;17834;52.992;8.856;2024-03-29T08:15:07;2.13;;;0.65;;
31206;SDS011;17834;52.992;8.856;2024-03-29T08:17:33;2.13;;;0.77;;
31206;SDS011;17834;52.992;8.856;2024-03-29T08:19:59;1.60;;;0.88;;
31206;SDS011;17834;52.992;8.856;2024-03-29T08:22:25;4.47;;;1.35;;
31206;SDS011;17834;52.992;8.856;2024-03-29T08:24:53;3.55;;;1.00;;
31206;SDS011;17834;52.992;8.856;2024-03-29T08:27:19;1.73;;;0.80;;
31206;SDS011;17834;52.992;8.856;2024-03-29T08:29:45;1.77;;;0.60;;
31206;SDS011;17834;52.992;8.856;2024-03-29T08:32:11;2.42;;;0.60;;
31206;SDS011;17834;52.992;8.856;2024-03-29T08:34:38;2.38;;;1.13;;
31206;SDS011;17834;52.992;8.856;2024-03-29T08:37:04;2.75;;;1.17;;
31206;SDS011;17834;52.992;8.856;2024-03-29T08:39:30;4.25;;;0.90;;
31206;SDS011;17834;52.992;8.856;2024-03-29T08:41:56;1.42;;;0.70;;
31206;SDS011;17834;52.992;8.856;2024-03-29T08:44:22;3.65;;;0.93;;
31206;SDS011;17834;52.992;8.856;2024-03-29T08:46:49;1.63;;;0.77;;
31206;SDS011;17834;52.992;8.856;2024-03-29T08:49:15;2.08;;;1.02;;
31206;SDS011;17834;52.992;8.856;2024-03-29T08:51:41;2.72;;;0.98;;
31206;SDS011;17834;52.992;8.856;2024-03-29T08:54:07;4.70;;;0.95;;
31206;SDS011;17834;52.992;8.856;2024-03-29T08:56:33;2.58;;;0.82;;
31206;SDS011;17834;52.992;8.856;2024-03-29T08:59:01;2.00;;;1.30;;
31206;SDS011;17834;52.992;8.856;2024-03-29T09:01:32;2.80;;;0.60;;
31206;SDS011;17834;52.992;8.856;2024-03-29T09:03:58;1.13;;;0.60;;
31206;SDS011;17834;52.992;8.856;2024-03-29T09:06:24;1.83;;;0.80;;
31206;SDS011;17834;52.992;8.856;2024-03-29T09:08:50;1.33;;;0.70;;
31206;SDS011;17834;52.992;8.856;2024-03-29T09:11:16;2.67;;;1.20;;
31206;SDS011;17834;52.992;8.856;2024-03-29T09:13:42;2.15;;;0.90;;
31206;SDS011;17834;52.992;8.856;2024-03-29T09:16:08;3.53;;;1.33;;
31206;SDS011;17834;52.992;8.856;2024-03-29T09:18:34;1.75;;;0.95;;
31206;SDS011;17834;52.992;8.856;2024-03-29T09:21:00;2.08;;;1.08;;
31206;SDS011;17834;52.992;8.856;2024-03-29T09:23:27;2.47;;;0.80;;
31206;SDS011;17834;52.992;8.856;2024-03-29T09:25:54;1.42;;;0.70;;
31206;SDS011;17834;52.992;8.856;2024-03-29T09:28:20;2.03;;;0.95;;
31206;SDS011;17834;52.992;8.856;2024-03-29T09:30:47;2.90;;;0.65;;
31206;SDS011;17834;52.992;8.856;2024-03-29T09:33:12;2.10;;;0.60;;
31206;SDS011;17834;52.992;8.856;2024-03-29T09:35:38;4.32;;;0.90;;
31206;SDS011;17834;52.992;8.856;2024-03-29T09:38:04;1.40;;;0.98;;
31206;SDS011;17834;52.992;8.856;2024-03-29T09:40:30;1.40;;;0.70;;
31206;SDS011;17834;52.992;8.856;2024-03-29T09:42:57;1.73;;;0.70;;
31206;SDS011;17834;52.992;8.856;2024-03-29T09:45:28;4.53;;;0.90;;
31206;SDS011;17834;52.992;8.856;2024-03-29T09:47:57;3.28;;;0.80;;
31206;SDS011;17834;52.992;8.856;2024-03-29T09:50:24;2.45;;;0.80;;
31206;SDS011;17834;52.992;8.856;2024-03-29T09:52:50;4.47;;;1.40;;
31206;SDS011;17834;52.992;8.856;2024-03-29T09:55:16;2.25;;;1.05;;
31206;SDS011;17834;52.992;8.856;2024-03-29T09:57:45;4.25;;;1.10;;
31206;SDS011;17834;52.992;8.856;2024-03-29T10:00:11;3.35;;;0.82;;
31206;SDS011;17834;52.992;8.856;2024-03-29T10:02:37;2.55;;;0.82;;
31206;SDS011;17834;52.992;8.856;2024-03-29T10:05:04;1.77;;;0.80;;
31206;SDS011;17834;52.992;8.856;2024-03-29T10:07:32;3.08;;;1.05;;
31206;SDS011;17834;52.992;8.856;2024-03-29T10:10:01;0.95;;;0.55;;
31206;SDS011;17834;52.992;8.856;2024-03-29T10:12:27;1.70;;;0.70;;
31206;SDS011;17834;52.992;8.856;2024-03-29T10:14:53;3.38;;;1.02;;
31206;SDS011;17834;52.992;8.856;2024-03-29T10:17:39;3.72;;;1.20;;
31206;SDS011;17834;52.992;8.856;2024-03-29T10:20:05;1.95;;;0.90;;
31206;SDS011;17834;52.992;8.856;2024-03-29T10:22:41;2.40;;;0.80;;
31206;SDS011;17834;52.992;8.856;2024-03-29T10:25:08;2.05;;;0.82;;
31206;SDS011;17834;52.992;8.856;2024-03-29T10:27:34;1.80;;;0.82;;
31206;SDS011;17834;52.992;8.856;2024-03-29T10:30:00;2.35;;;1.02;;
31206;SDS011;17834;52.992;8.856;2024-03-29T10:32:27;3.33;;;1.20;;
31206;SDS011;17834;52.992;8.856;2024-03-29T10:34:53;1.88;;;0.80;;
31206;SDS011;17834;52.992;8.856;2024-03-29T10:37:19;2.83;;;0.80;;
31206;SDS011;17834;52.992;8.856;2024-03-29T10:39:54;1.83;;;1.00;;
31206;SDS011;17834;52.992;8.856;2024-03-29T10:42:22;3.08;;;0.85;;
31206;SDS011;17834;52.992;8.856;2024-03-29T10:44:50;1.08;;;0.70;;
31206;SDS011;17834;52.992;8.856;2024-03-29T10:47:19;2.45;;;1.30;;
31206;SDS011;17834;52.992;8.856;2024-03-29T10:49:52;2.95;;;0.93;;
31206;SDS011;17834;52.992;8.856;2024-03-29T10:52:19;2.45;;;1.13;;
31206;SDS011;17834;52.992;8.856;2024-03-29T10:54:46;2.42;;;0.70;;
31206;SDS011;17834;52.992;8.856;2024-03-29T10:57:16;2.20;;;0.70;;
31206;SDS011;17834;52.992;8.856;2024-03-29T11:00:06;3.88;;;0.80;;
31206;SDS011;17834;52.992;8.856;2024-03-29T11:02:35;2.25;;;1.23;;
31206;SDS011;17834;52.992;8.856;2024-03-29T11:05:06;2.53;;;0.93;;
31206;SDS011;17834;52.992;8.856;2024-03-29T11:07:35;2.22;;;1.10;;
31206;SDS011;17834;52.992;8.856;2024-03-29T11:10:05;2.33;;;0.93;;
31206;SDS011;17834;52.992;8.856;2024-03-29T11:12:35;2.97;;;0.80;;
31206;SDS011;17834;52.992;8.856;2024-03-29T11:15:04;2.88;;;1.00;;
31206;SDS011;17834;52.992;8.856;2024-03-29T11:17:31;2.60;;;1.15;;
31206;SDS011;17834;52.992;8.856;2024-03-29T11:20:00;2.50;;;0.85;;
31206;SDS011;17834;52.992;8.856;2024-03-29T11:22:27;2.92;;;0.80;;
31206;SDS011;17834;52.992;8.856;2024-03-29T11:24:53;2.33;;;0.70;;
31206;SDS011;17834;52.992;8.856;2024-03-29T11:27:23;1.52;;;0.77;;
31206;SDS011;17834;52.992;8.856;2024-03-29T11:29:49;2.13;;;0.82;;
31206;SDS011;17834;52.992;8.856;2024-03-29T11:32:15;1.05;;;0.50;;
31206;SDS011;17834;52.992;8.856;2024-03-29T11:34:55;6.35;;;0.98;;
31206;SDS011;17834;52.992;8.856;2024-03-29T11:37:29;1.58;;;0.65;;
31206;SDS011;17834;52.992;8.856;2024-03-29T11:39:55;2.63;;;0.90;;
31206;SDS011;17834;52.992;8.856;2024-03-29T11:42:35;2.90;;;0.95;;
31206;SDS011;17834;52.992;8.856;2024-03-29T11:45:00;1.05;;;0.60;;
31206;SDS011;17834;52.992;8.856;2024-03-29T11:47:26;2.67;;;1.00;;
31206;SDS011;17834;52.992;8.856;2024-03-29T11:49:56;1.73;;;1.15;;
31206;SDS011;17834;52.992;8.856;2024-03-29T11:52:23;1.77;;;0.85;;
31206;SDS011;17834;52.992;8.856;2024-03-29T11:54:49;2.97;;;1.10;;
31206;SDS011;17834;52.992;8.856;2024-03-29T11:57:16;1.20;;;0.70;;
31206;SDS011;17834;52.992;8.856;2024-03-29T11:59:42;4.82;;;1.15;;
31206;SDS011;17834;52.992;8.856;2024-03-29T12:02:08;2.53;;;0.98;;
31206;SDS011;17834;52.992;8.856;2024-03-29T12:04:39;4.50;;;1.20;;
31206;SDS011;17834;52.992;8.856;2024-03-29T12:07:05;2.30;;;0.85;;
31206;SDS011;17834;52.992;8.856;2024-03-29T12:09:31;1.65;;;0.88;;
31206;SDS011;17834;52.992;8.856;2024-03-29T12:11:57;1.63;;;0.80;;
31206;SDS011;17834;52.992;8.856;2024-03-29T12:14:24;3.97;;;1.10;;
31206;SDS011;17834;52.992;8.856;2024-03-29T12:16:52;5.03;;;1.88;;
31206;SDS011;17834;52.992;8.856;2024-03-29T12:19:24;2.85;;;1.40;;
31206;SDS011;17834;52.992;8.856;2024-03-29T12:21:52;1.92;;;0.95;;
31206;SDS011;17834;52.992;8.856;2024-03-29T12:24:18;2.10;;;1.30;;
31206;SDS011;17834;52.992;8.856;2024-03-29T12:26:44;3.00;;;1.00;;
31206;SDS011;17834;52.992;8.856;2024-03-29T12:29:10;4.10;;;1.70;;
31206;SDS011;17834;52.992;8.856;2024-03-29T12:31:36;3.72;;;1.30;;
31206;SDS011;17834;52.992;8.856;2024-03-29T12:34:04;2.97;;;1.30;;
31206;SDS011;17834;52.992;8.856;2024-03-29T12:36:31;2.03;;;1.10;;
31206;SDS011;17834;52.992;8.856;2024-03-29T12:38:58;2.35;;;1.20;;
31206;SDS011;17834;52.992;8.856;2024-03-29T12:41:28;2.22;;;1.10;;
31206;SDS011;17834;52.992;8.856;2024-03-29T12:43:54;3.20;;;1.17;;
31206;SDS011;17834;52.992;8.856;2024-03-29T12:46:21;2.03;;;1.05;;
31206;SDS011;17834;52.992;8.856;2024-03-29T12:48:46;1.98;;;1.20;;
31206;SDS011;17834;52.992;8.856;2024-03-29T12:51:12;3.17;;;1.20;;
31206;SDS011;17834;52.992;8.856;2024-03-29T12:53:39;3.38;;;1.40;;
31206;SDS011;17834;52.992;8.856;2024-03-29T12:56:05;2.20;;;1.10;;
31206;SDS011;17834;52.992;8.856;2024-03-29T12:58:31;2.05;;;1.20;;
31206;SDS011;17834;52.992;8.856;2024-03-29T13:00:57;1.77;;;1.40;;
31206;SDS011;17834;52.992;8.856;2024-03-29T13:03:23;4.35;;;1.98;;
31206;SDS011;17834;52.992;8.856;2024-03-29T13:05:49;3.45;;;1.35;;
31206;SDS011;17834;52.992;8.856;2024-03-29T13:08:15;2.88;;;1.35;;
31206;SDS011;17834;52.992;8.856;2024-03-29T13:10:41;2.83;;;1.20;;
31206;SDS011;17834;52.992;8.856;2024-03-29T13:13:07;1.63;;;1.10;;
31206;SDS011;17834;52.992;8.856;2024-03-29T13:15:34;2.08;;;1.35;;
31206;SDS011;17834;52.992;8.856;2024-03-29T13:18:01;1.60;;;1.10;;
31206;SDS011;17834;52.992;8.856;2024-03-29T13:20:28;1.77;;;1.30;;
31206;SDS011;17834;52.992;8.856;2024-03-29T13:22:54;1.63;;;1.00;;
31206;SDS011;17834;52.992;8.856;2024-03-29T13:25:21;2.33;;;1.30;;
31206;SDS011;17834;52.992;8.856;2024-03-29T13:27:51;2.58;;;1.40;;
31206;SDS011;17834;52.992;8.856;2024-03-29T13:30:21;2.88;;;1.30;;
31206;SDS011;17834;52.992;8.856;2024-03-29T13:32:47;2.05;;;1.27;;
31206;SDS011;17834;52.992;8.856;2024-03-29T13:35:13;2.10;;;1.30;;
31206;SDS011;17834;52.992;8.856;2024-03-29T13:37:40;2.20;;;1.30;;
31206;SDS011;17834;52.992;8.856;2024-03-29T13:40:08;2.08;;;1.02;;
31206;SDS011;17834;52.992;8.856;2024-03-29T13:42:34;2.75;;;1.40;;
31206;SDS011;17834;52.992;8.856;2024-03-29T13:45:00;1.83;;;1.30;;
31206;SDS011;17834;52.992;8.856;2024-03-29T13:47:26;3.03;;;1.52;;
31206;SDS011;17834;52.992;8.856;2024-03-29T13:49:52;2.83;;;1.55;;
31206;SDS011;17834;52.992;8.856;2024-03-29T13:52:20;2.78;;;1.40;;
31206;SDS011;17834;52.992;8.856;2024-03-29T13:54:46;2.85;;;1.50;;
31206;SDS011;17834;52.992;8.856;2024-03-29T13:57:13;3.00;;;1.58;;
31206;SDS011;17834;52.992;8.856;2024-03-29T13:59:39;2.70;;;1.50;;
31206;SDS011;17834;52.992;8.856;2024-03-29T14:02:08;4.15;;;1.77;;
31206;SDS011;17834;52.992;8.856;2024-03-29T14:04:34;3.33;;;2.42;;
31206;SDS011;17834;52.992;8.856;2024-03-29T14:07:00;4.70;;;1.85;;
31206;SDS011;17834;52.992;8.856;2024-03-29T14:09:27;3.17;;;1.90;;
31206;SDS011;17834;52.992;8.856;2024-03-29T14:11:53;2.65;;;1.60;;
31206;SDS011;17834;52.992;8.856;2024-03-29T14:14:19;3.30;;;2.28;;
31206;SDS011;17834;52.992;8.856;2024-03-29T14:16:45;3.65;;;2.05;;
31206;SDS011;17834;52.992;8.856;2024-03-29T14:19:10;3.70;;;2.53;;
31206;SDS011;17834;52.992;8.856;2024-03-29T14:21:36;5.28;;;2.00;;
31206;SDS011;17834;52.992;8.856;2024-03-29T14:24:02;3.70;;;2.10;;
31206;SDS011;17834;52.992;8.856;2024-03-29T14:26:28;2.75;;;1.90;;
31206;SDS011;17834;52.992;8.856;2024-03-29T14:28:54;3.42;;;2.20;;
31206;SDS011;17834;52.992;8.856;2024-03-29T14:31:20;3.05;;;1.83;;
31206;SDS011;17834;52.992;8.856;2024-03-29T14:33:46;2.88;;;1.80;;
31206;SDS011;17834;52.992;8.856;2024-03-29T14:36:12;3.20;;;2.05;;
31206;SDS011;17834;52.992;8.856;2024-03-29T14:38:38;3.88;;;2.00;;
31206;SDS011;17834;52.992;8.856;2024-03-29T14:41:04;2.92;;;1.90;;
31206;SDS011;17834;52.992;8.856;2024-03-29T14:43:30;3.75;;;2.00;;
31206;SDS011;17834;52.992;8.856;2024-03-29T14:45:57;4.53;;;2.30;;